createdAt,value
2023-04-03T00:00:14.126Z,99441.63
2023-04-03T00:04:26.711Z,99434.63
2023-04-03T00:08:40.617Z,99429.47
2023-04-03T00:12:53.186Z,99417.22
2023-04-03T00:17:05.751Z,99419.91
2023-04-03T00:21:18.260Z,99398.38
2023-04-03T00:25:30.761Z,99393.25
2023-04-03T00:29:43.301Z,99382.56
2023-04-03T00:33:55.809Z,99380.91
2023-04-03T00:38:12.569Z,99374.53
2023-04-03T00:42:25.624Z,99364.78
2023-04-03T00:46:38.111Z,99366.50
2023-04-03T00:50:51.841Z,99354.13
2023-04-03T00:55:09.161Z,99347.16
2023-04-03T00:59:33.819Z,99327.88
2023-04-03T01:03:46.470Z,99328.91
2023-04-03T01:08:00.138Z,99317.47
2023-04-03T01:12:27.388Z,99321.81
2023-04-03T01:16:40.885Z,99329.06
2023-04-03T01:21:33.017Z,99317.81
2023-04-03T01:25:48.966Z,99302.13
2023-04-03T01:30:01.511Z,99299.16
2023-04-03T01:34:14.291Z,99286.28
2023-04-03T01:38:26.952Z,99278.34
2023-04-03T01:42:39.427Z,99268.75
2023-04-03T01:46:51.851Z,99263.66
2023-04-03T01:51:07.159Z,99254.78
2023-04-03T01:55:19.639Z,99250.22
2023-04-03T01:59:32.462Z,99246.09
2023-04-03T02:03:45.413Z,99219.03
2023-04-03T02:07:57.844Z,99222.38
2023-04-03T02:12:10.271Z,99203.19
2023-04-03T02:16:22.815Z,99217.97
2023-04-03T02:20:36.024Z,99208.72
2023-04-03T02:24:48.674Z,99177.88
2023-04-03T02:29:04.753Z,99191.69
2023-04-03T02:33:17.230Z,99174.59
2023-04-03T02:37:29.772Z,99158.47
2023-04-03T02:41:42.838Z,99179.06
2023-04-03T02:46:00.735Z,99165.03
2023-04-03T02:50:13.204Z,99182.13
2023-04-03T02:54:29.060Z,99167.38
2023-04-03T02:58:44.136Z,99142.88
2023-04-03T03:02:56.982Z,99141.44
2023-04-03T03:07:09.437Z,99132.44
2023-04-03T03:11:22.342Z,99157.97
2023-04-03T03:15:34.864Z,99126.53
2023-04-03T03:19:48.301Z,99136.19
2023-04-03T03:24:00.932Z,99131.06
2023-04-03T03:28:13.411Z,99126.72
2023-04-03T03:32:25.845Z,99130.03
2023-04-03T03:36:38.262Z,99122.72
2023-04-03T03:40:51.651Z,99107.50
2023-04-03T03:45:06.853Z,99099.00
2023-04-03T03:49:19.317Z,99087.34
2023-04-03T03:53:32.081Z,99094.66
2023-04-03T03:57:49.851Z,99076.38
2023-04-03T04:02:02.498Z,99087.75
2023-04-03T04:06:16.164Z,99082.44
2023-04-03T04:10:29.070Z,99083.94
2023-04-03T04:14:43.202Z,99074.03
2023-04-03T04:18:56.080Z,99049.84
2023-04-03T04:23:09.476Z,99066.41
2023-04-03T04:27:23.380Z,99029.31
2023-04-03T04:31:35.952Z,99039.03
2023-04-03T04:35:49.885Z,99040.75
2023-04-03T04:40:05.920Z,99028.50
2023-04-03T04:44:18.656Z,99017.91
2023-04-03T04:48:32.711Z,99004.16
2023-04-03T04:52:46.962Z,98991.41
2023-04-03T04:56:59.806Z,98989.66
2023-04-03T05:01:14.237Z,99002.47
2023-04-03T05:05:45.280Z,98991.53
2023-04-03T05:09:58.280Z,99008.72
2023-04-03T05:14:11.051Z,99000.59
2023-04-03T05:18:23.610Z,98997.22
2023-04-03T05:22:37.346Z,99000.97
2023-04-03T05:26:53.625Z,99002.00
2023-04-03T05:31:06.406Z,98998.94
2023-04-03T05:35:22.296Z,99003.03
2023-04-03T05:39:40.958Z,98991.16
2023-04-03T05:43:54.535Z,98987.81
2023-04-03T05:48:09.171Z,98976.97
2023-04-03T05:52:28.803Z,98975.56
2023-04-03T05:56:44.174Z,98969.38
2023-04-03T06:00:57.406Z,98967.41
2023-04-03T06:05:12.957Z,98973.25
2023-04-03T06:09:30.272Z,98967.34
2023-04-03T06:13:42.660Z,98974.97
2023-04-03T06:17:55.303Z,98979.59
2023-04-03T06:22:08.217Z,98961.34
2023-04-03T06:26:22.121Z,98947.72
2023-04-03T06:30:34.547Z,98963.16
2023-04-03T06:34:47.505Z,98948.25
2023-04-03T06:39:02.620Z,98921.13
2023-04-03T06:43:14.933Z,98945.84
2023-04-03T06:47:27.551Z,98929.38
2023-04-03T06:51:40.207Z,98949.16
2023-04-03T06:55:52.645Z,98939.59
2023-04-03T07:00:06.999Z,98950.22
2023-04-03T07:04:21.583Z,98928.47
2023-04-03T07:08:35.098Z,98950.56
2023-04-03T07:12:47.504Z,98956.72
2023-04-03T07:16:59.920Z,98938.72
2023-04-03T07:21:14.285Z,98935.44
2023-04-03T07:25:26.770Z,98936.09
2023-04-03T07:29:40.205Z,98941.09
2023-04-03T07:33:52.891Z,98948.41
2023-04-03T07:38:05.271Z,98942.13
2023-04-03T07:42:17.781Z,98929.34
2023-04-03T07:46:30.914Z,98953.53
2023-04-03T07:50:43.801Z,98941.25
2023-04-03T07:54:56.285Z,98918.28
2023-04-03T07:59:09.104Z,98942.06
2023-04-03T08:03:21.715Z,98944.91
2023-04-03T08:07:35.757Z,98940.16
2023-04-03T08:11:48.254Z,98929.16
2023-04-03T08:16:17.983Z,98934.53
2023-04-03T08:20:30.798Z,98948.19
2023-04-03T08:24:58.266Z,98933.94
2023-04-03T08:29:11.785Z,98933.16
2023-04-03T08:33:26.356Z,98932.63
2023-04-03T08:37:40.075Z,98946.19
2023-04-03T08:41:52.885Z,98942.13
2023-04-03T08:46:09.134Z,98951.97
2023-04-03T08:50:26.537Z,98935.38
2023-04-03T08:54:52.617Z,98932.13
2023-04-03T08:59:15.674Z,98902.88
2023-04-03T09:03:37.828Z,98873.97
2023-04-03T09:08:05.258Z,98866.97
2023-04-03T09:12:33.509Z,98871.78
2023-04-03T09:17:11.655Z,98867.09
2023-04-03T09:21:36.475Z,98869.97
2023-04-03T09:25:50.430Z,98867.16
2023-04-03T09:30:03.135Z,98869.78
2023-04-03T09:34:29.335Z,98887.34
2023-04-03T09:38:41.965Z,98861.78
2023-04-03T09:43:01.357Z,98858.56
2023-04-03T09:47:28.174Z,98858.06
2023-04-03T09:51:42.075Z,98851.91
2023-04-03T09:55:54.501Z,98865.78
2023-04-03T10:00:12.147Z,98848.38
2023-04-03T10:04:25.686Z,98846.56
2023-04-03T10:08:38.125Z,98826.84
2023-04-03T10:13:02.268Z,98823.09
2023-04-03T10:17:36.042Z,98817.75
2023-04-03T10:22:00.547Z,98796.31
2023-04-03T10:26:34.765Z,98786.41
2023-04-03T10:31:26.664Z,98789.00
2023-04-03T10:35:55.313Z,98775.28
2023-04-03T10:40:37.093Z,98766.88
2023-04-03T10:45:22.311Z,98769.28
2023-04-03T10:49:57.123Z,98765.16
2023-04-03T10:54:24.785Z,98761.03
2023-04-03T10:58:41.983Z,98751.22
2023-04-03T11:03:02.278Z,98738.47
2023-04-03T11:07:23.261Z,98734.16
2023-04-03T11:11:40.091Z,98734.75
2023-04-03T11:15:55.155Z,98730.63
2023-04-03T11:20:34.452Z,98739.16
2023-04-03T11:25:06.574Z,98738.88
2023-04-03T11:29:34.797Z,98729.09
2023-04-03T11:34:00.036Z,98740.38
2023-04-03T11:38:25.319Z,98735.59
2023-04-03T11:42:40.799Z,98715.31
2023-04-03T11:46:58.152Z,98700.78
2023-04-03T11:51:17.713Z,98706.91
2023-04-03T11:55:33.333Z,98701.94
2023-04-03T11:59:45.800Z,98687.91
2023-04-03T12:04:08.388Z,98683.25
2023-04-03T12:08:45.298Z,98672.47
2023-04-03T12:13:00.669Z,98690.47
2023-04-03T12:17:28.574Z,98692.25
2023-04-03T12:21:48.829Z,98689.69
2023-04-03T12:26:25.240Z,98675.44
2023-04-03T12:30:39.040Z,98668.69
2023-04-03T12:35:29.686Z,98675.63
2023-04-03T12:40:09.966Z,98668.38
2023-04-03T12:44:38.757Z,98667.22
2023-04-03T12:48:58.527Z,98669.16
2023-04-03T12:53:15.907Z,98670.56
2023-04-03T12:57:29.208Z,98646.38
2023-04-03T13:01:42.198Z,98657.09
2023-04-03T13:06:03.256Z,98670.44
2023-04-03T13:10:21.153Z,98675.13
2023-04-03T13:14:35.033Z,98676.66
2023-04-03T13:18:54.444Z,98676.84
2023-04-03T13:23:10.530Z,98659.97
2023-04-03T13:27:24.361Z,98653.41
2023-04-03T13:31:40.367Z,98630.41
2023-04-03T13:35:59.414Z,98627.78
2023-04-03T13:40:14.506Z,98616.59
2023-04-03T13:44:34.020Z,98599.69
2023-04-03T13:48:50.779Z,98599.69
2023-04-03T13:53:15.153Z,98603.50
2023-04-03T13:57:27.973Z,98586.81
2023-04-03T14:01:54.325Z,98566.56
2023-04-03T14:06:08.169Z,98570.84
2023-04-03T14:10:21.067Z,98556.19
2023-04-03T14:14:36.728Z,98553.03
2023-04-03T14:18:51.085Z,98566.75
2023-04-03T14:23:04.113Z,98557.00
2023-04-03T14:27:25.839Z,98547.91
2023-04-03T14:31:38.345Z,98527.91
2023-04-03T14:35:57.793Z,98513.22
2023-04-03T14:40:14.158Z,98507.84
2023-04-03T14:44:27.516Z,98509.03
2023-04-03T14:48:39.971Z,98515.38
2023-04-03T14:52:55.645Z,98523.03
2023-04-03T14:57:12.747Z,98531.72
2023-04-03T15:01:25.815Z,98526.88
2023-04-03T15:05:38.735Z,98517.22
2023-04-03T15:09:51.787Z,98514.97
2023-04-03T15:14:04.239Z,98520.22
2023-04-03T15:18:42.657Z,98535.69
2023-04-03T15:22:57.752Z,98530.25
2023-04-03T15:27:11.766Z,98539.88
2023-04-03T15:31:24.347Z,98535.50
2023-04-03T15:35:37.091Z,98547.19
2023-04-03T15:39:49.557Z,98549.94
2023-04-03T15:44:02.034Z,98535.47
2023-04-03T15:48:14.988Z,98550.25
2023-04-03T15:52:27.405Z,98560.81
2023-04-03T15:56:39.943Z,98578.16
2023-04-03T16:00:53.075Z,98576.72
2023-04-03T16:05:05.954Z,98596.59
2023-04-03T16:09:18.521Z,98592.88
2023-04-03T16:13:31.124Z,98600.66
2023-04-03T16:17:43.856Z,98618.88
2023-04-03T16:21:57.056Z,98621.06
2023-04-03T16:26:09.702Z,98616.53
2023-04-03T16:30:22.210Z,98628.91
2023-04-03T16:34:34.895Z,98644.75
2023-04-03T16:38:47.357Z,98679.16
2023-04-03T16:42:59.879Z,98672.00
2023-04-03T16:47:15.111Z,98673.66
2023-04-03T16:51:27.633Z,98663.16
2023-04-03T16:55:41.447Z,98669.84
2023-04-03T16:59:54.979Z,98677.75
2023-04-03T17:04:07.510Z,98678.53
2023-04-03T17:08:19.983Z,98680.97
2023-04-03T17:12:32.576Z,98676.13
2023-04-03T17:16:45.507Z,98681.38
2023-04-03T17:20:58.281Z,98689.38
2023-04-03T17:25:11.638Z,98693.03
2023-04-03T17:29:24.107Z,98714.81
2023-04-03T17:33:36.649Z,98705.25
2023-04-03T17:37:50.894Z,98705.06
2023-04-03T17:42:03.305Z,98709.25
2023-04-03T17:46:17.975Z,98712.41
2023-04-03T17:50:31.445Z,98723.81
2023-04-03T17:54:44.055Z,98737.00
2023-04-03T17:58:58.764Z,98731.38
2023-04-03T18:03:11.271Z,98734.25
2023-04-03T18:07:25.504Z,98746.88
2023-04-03T18:11:38.510Z,98749.56
2023-04-03T18:15:51.352Z,98752.50
2023-04-03T18:20:04.753Z,98761.81
2023-04-03T18:24:20.065Z,98767.75
2023-04-03T18:28:33.115Z,98774.50
2023-04-03T18:32:46.418Z,98772.84
2023-04-03T18:36:58.819Z,98777.38
2023-04-03T18:41:12.080Z,98773.66
2023-04-03T18:45:24.794Z,98772.81
2023-04-03T18:49:39.796Z,98782.22
2023-04-03T18:53:52.343Z,98786.75
2023-04-03T18:58:04.708Z,98789.06
2023-04-03T19:02:18.868Z,98781.78
2023-04-03T19:06:34.386Z,98782.78
2023-04-03T19:10:46.945Z,98787.00
2023-04-03T19:14:59.400Z,98784.56
2023-04-03T19:19:12.440Z,98777.75
2023-04-03T19:23:25.161Z,98791.31
2023-04-03T19:27:38.792Z,98792.69
2023-04-03T19:31:51.875Z,98795.91
2023-04-03T19:36:07.904Z,98798.06
2023-04-03T19:40:20.813Z,98815.28
2023-04-03T19:44:35.283Z,98815.44
2023-04-03T19:48:47.828Z,98821.44
2023-04-03T19:53:03.494Z,98811.31
2023-04-03T19:57:16.020Z,98807.03
2023-04-03T20:01:31.057Z,98810.53
2023-04-03T20:05:44.581Z,98812.34
2023-04-03T20:09:57.035Z,98825.91
2023-04-03T20:14:09.426Z,98812.34
2023-04-03T20:18:22.022Z,98813.97
2023-04-03T20:22:37.074Z,98811.84
2023-04-03T20:26:49.554Z,98822.84
2023-04-03T20:31:02.829Z,98812.31
2023-04-03T20:35:15.701Z,98812.56
2023-04-03T20:39:30.878Z,98814.69
2023-04-03T20:43:45.767Z,98822.22
2023-04-03T20:47:59.064Z,98809.41
2023-04-03T20:52:11.618Z,98807.88
2023-04-03T20:56:24.600Z,98808.41
2023-04-03T21:00:38.369Z,98804.38
2023-04-03T21:04:55.614Z,98799.94
2023-04-03T21:09:46.082Z,98794.31
2023-04-03T21:14:36.467Z,98797.34
2023-04-03T21:18:53.362Z,98784.53
2023-04-03T21:23:06.877Z,98796.00
2023-04-03T21:27:19.502Z,98780.41
2023-04-03T21:31:59.023Z,98787.44
2023-04-03T21:36:11.441Z,98786.69
2023-04-03T21:40:23.910Z,98787.38
2023-04-03T21:44:36.293Z,98782.75
2023-04-03T21:48:48.653Z,98780.47
2023-04-03T21:53:02.350Z,98775.81
2023-04-03T21:57:14.820Z,98780.25
2023-04-03T22:01:27.351Z,98775.16
2023-04-03T22:05:39.806Z,98781.00
2023-04-03T22:09:53.641Z,98788.56
2023-04-03T22:14:06.386Z,98782.84
2023-04-03T22:18:18.645Z,98783.22
2023-04-03T22:22:31.063Z,98790.53
2023-04-03T22:26:45.751Z,98778.41
2023-04-03T22:31:01.587Z,98785.53
2023-04-03T22:35:14.429Z,98794.44
2023-04-03T22:39:26.790Z,98790.91
2023-04-03T22:43:39.699Z,98786.97
2023-04-03T22:47:52.568Z,98789.19
2023-04-03T22:52:05.204Z,98793.63
2023-04-03T22:56:17.683Z,98793.00
2023-04-03T23:00:30.256Z,98793.00
2023-04-03T23:04:42.893Z,98796.13
2023-04-03T23:08:55.402Z,98793.00
2023-04-03T23:13:08.100Z,98795.22
2023-04-03T23:17:20.841Z,98790.06
2023-04-03T23:21:33.750Z,98788.50
2023-04-03T23:25:48.290Z,98789.38
2023-04-03T23:30:00.860Z,98794.66
2023-04-03T23:34:13.302Z,98789.09
2023-04-03T23:38:26.081Z,98789.81
2023-04-03T23:42:38.517Z,98796.94
2023-04-03T23:46:50.907Z,98796.72
2023-04-03T23:51:04.160Z,98791.22
2023-04-03T23:55:17.337Z,98793.13
2023-04-03T23:59:31.305Z,98785.94
